createdAt,value
2018-04-10T00:03:24.319Z,13.60
2018-04-10T00:08:26.881Z,13.60
2018-04-10T00:13:29.664Z,13.60
2018-04-10T00:18:32.213Z,13.50
2018-04-10T00:23:37.380Z,13.40
2018-04-10T00:28:40.449Z,13.30
2018-04-10T00:33:43.024Z,13.30
2018-04-10T00:38:45.596Z,13.30
2018-04-10T00:43:48.848Z,13.20
2018-04-10T00:48:51.632Z,13.30
2018-04-10T00:53:54.651Z,13.30
2018-04-10T00:58:57.228Z,13.40
2018-04-10T01:03:59.816Z,13.50
2018-04-10T01:09:02.661Z,13.70
2018-04-10T01:14:12.168Z,13.90
2018-04-10T01:19:15.191Z,14.00
2018-04-10T01:24:18.618Z,14.20
2018-04-10T01:29:21.176Z,14.30
2018-04-10T01:34:24.179Z,14.30
2018-04-10T01:39:26.740Z,14.30
2018-04-10T01:44:29.303Z,14.00
2018-04-10T01:49:31.887Z,13.90
2018-04-10T01:54:35.040Z,13.80
2018-04-10T01:59:38.035Z,13.60
2018-04-10T02:04:40.601Z,13.60
2018-04-10T02:09:43.163Z,13.60
2018-04-10T02:14:46.622Z,13.60
2018-04-10T02:19:49.183Z,13.50
2018-04-10T02:24:51.740Z,13.40
2018-04-10T02:29:54.844Z,13.40
2018-04-10T02:34:59.876Z,13.40
2018-04-10T02:40:03.040Z,13.30
2018-04-10T02:45:07.164Z,13.20
2018-04-10T02:50:09.957Z,13.10
2018-04-10T02:55:13.072Z,13.10
2018-04-10T03:00:15.626Z,13.00
2018-04-10T03:05:18.336Z,12.90
2018-04-10T03:10:21.469Z,12.80
2018-04-10T03:15:24.014Z,12.60
2018-04-10T03:20:26.563Z,12.50
2018-04-10T03:25:29.147Z,12.30
2018-04-10T03:30:31.732Z,12.30
2018-04-10T03:35:34.309Z,12.20
2018-04-10T03:40:36.876Z,12.20
2018-04-10T03:45:39.440Z,12.30
2018-04-10T03:50:41.998Z,12.40
2018-04-10T03:55:44.578Z,12.30
2018-04-10T04:00:47.156Z,12.40
2018-04-10T04:05:49.933Z,12.40
2018-04-10T04:10:52.514Z,12.40
2018-04-10T04:15:55.076Z,12.40
2018-04-10T04:21:09.935Z,12.30
2018-04-10T04:26:12.507Z,12.20
2018-04-10T04:31:15.063Z,12.20
2018-04-10T04:36:18.132Z,12.20
2018-04-10T04:41:21.188Z,12.20
2018-04-10T04:46:24.230Z,12.10
2018-04-10T04:51:26.794Z,12.00
2018-04-10T04:56:31.995Z,11.90
2018-04-10T05:01:35.351Z,11.70
2018-04-10T05:06:37.904Z,11.60
2018-04-10T05:11:40.463Z,11.60
2018-04-10T05:16:43.624Z,11.60
2018-04-10T05:21:46.193Z,11.60
2018-04-10T05:26:48.772Z,11.50
2018-04-10T05:31:51.343Z,11.50
2018-04-10T05:36:53.913Z,11.50
2018-04-10T05:41:56.494Z,11.50
2018-04-10T05:46:59.066Z,12.60
2018-04-10T05:52:02.273Z,13.40
2018-04-10T05:57:05.326Z,13.10
2018-04-10T06:02:07.913Z,12.80
2018-04-10T06:07:10.617Z,12.50
2018-04-10T06:12:13.827Z,12.50
2018-04-10T06:17:17.037Z,12.50
2018-04-10T06:22:30.396Z,12.60
2018-04-10T06:27:33.601Z,12.80
2018-04-10T06:32:36.652Z,12.50
2018-04-10T06:37:40.039Z,12.30
2018-04-10T06:42:43.072Z,12.30
2018-04-10T06:47:45.895Z,12.40
2018-04-10T06:52:48.469Z,12.50
2018-04-10T06:57:51.049Z,12.70
2018-04-10T07:02:53.740Z,13.00
2018-04-10T07:07:56.654Z,13.30
2018-04-10T07:12:59.190Z,13.50
2018-04-10T07:18:01.745Z,13.70
2018-04-10T07:23:04.756Z,13.90
2018-04-10T07:28:07.768Z,14.10
2018-04-10T07:33:10.493Z,14.40
2018-04-10T07:38:13.615Z,14.40
2018-04-10T07:43:16.179Z,14.50
2018-04-10T07:48:18.748Z,14.90
2018-04-10T07:53:21.469Z,15.30
2018-04-10T07:58:24.032Z,15.50
2018-04-10T08:03:26.654Z,15.80
2018-04-10T08:08:30.240Z,16.00
2018-04-10T08:13:33.094Z,16.10
2018-04-10T08:18:35.662Z,16.10
2018-04-10T08:23:38.710Z,16.10
2018-04-10T08:28:41.287Z,18.10
2018-04-10T08:33:43.846Z,21.10
2018-04-10T08:38:46.991Z,23.60
2018-04-10T08:43:49.879Z,24.10
2018-04-10T08:48:52.640Z,23.50
2018-04-10T08:53:55.371Z,21.70
2018-04-10T08:58:58.402Z,20.40
2018-04-10T09:04:02.064Z,19.90
2018-04-10T09:09:05.435Z,20.10
2018-04-10T09:14:10.779Z,20.20
2018-04-10T09:19:14.550Z,19.50
2018-04-10T09:24:17.135Z,18.80
2018-04-10T09:29:20.578Z,18.30
2018-04-10T09:34:23.146Z,18.10
2018-04-10T09:39:29.383Z,17.80
2018-04-10T09:44:31.946Z,18.30
2018-04-10T09:49:34.533Z,19.00
2018-04-10T09:54:37.104Z,19.60
2018-04-10T09:59:39.687Z,20.20
2018-04-10T10:04:42.379Z,20.50
2018-04-10T10:09:46.252Z,20.30
2018-04-10T10:14:48.828Z,20.20
2018-04-10T10:19:51.397Z,20.30
2018-04-10T10:24:53.970Z,20.90
2018-04-10T10:29:56.528Z,21.30
2018-04-10T10:35:02.460Z,21.20
2018-04-10T10:40:05.216Z,21.30
2018-04-10T10:45:07.783Z,21.40
2018-04-10T10:50:10.352Z,22.00
2018-04-10T10:55:12.903Z,22.40
2018-04-10T11:00:15.903Z,22.70
2018-04-10T11:05:18.698Z,23.20
2018-04-10T11:10:21.253Z,23.60
2018-04-10T11:15:23.829Z,23.80
2018-04-10T11:20:26.401Z,23.70
2018-04-10T11:25:28.962Z,23.80
2018-04-10T11:30:32.093Z,23.90
2018-04-10T11:35:34.656Z,24.20
2018-04-10T11:40:37.230Z,24.50
2018-04-10T11:45:39.825Z,24.90
2018-04-10T11:50:42.385Z,25.10
2018-04-10T11:55:44.943Z,25.00
2018-04-10T12:00:47.505Z,24.90
2018-04-10T12:05:50.074Z,24.40
2018-04-10T12:10:52.648Z,24.20
2018-04-10T12:15:57.676Z,24.50
2018-04-10T12:21:00.244Z,24.60
2018-04-10T12:26:02.819Z,25.10
2018-04-10T12:31:05.377Z,25.30
2018-04-10T12:36:08.407Z,25.90
2018-04-10T12:41:10.988Z,26.20
2018-04-10T12:46:13.555Z,26.10
2018-04-10T12:51:16.124Z,26.10
2018-04-10T12:56:19.447Z,25.90
2018-04-10T13:01:22.011Z,25.40
2018-04-10T13:06:24.559Z,25.30
2018-04-10T13:11:27.143Z,26.00
2018-04-10T13:16:29.717Z,25.80
2018-04-10T13:21:32.280Z,25.40
2018-04-10T13:26:34.867Z,25.30
2018-04-10T13:31:37.424Z,25.40
2018-04-10T13:36:39.995Z,24.90
2018-04-10T13:41:42.548Z,24.50
2018-04-10T13:46:47.075Z,23.30
2018-04-10T13:51:49.644Z,21.30
2018-04-10T13:56:52.983Z,20.10
2018-04-10T14:01:57.982Z,18.80
2018-04-10T14:07:02.166Z,18.50
2018-04-10T14:12:04.708Z,18.00
2018-04-10T14:17:07.287Z,17.10
2018-04-10T14:22:10.144Z,16.30
2018-04-10T14:27:12.703Z,15.60
2018-04-10T14:32:15.251Z,15.50
2018-04-10T14:37:20.119Z,15.60
2018-04-10T14:42:22.703Z,15.90
2018-04-10T14:47:25.659Z,15.70
2018-04-10T14:52:28.494Z,15.80
2018-04-10T14:57:31.700Z,16.20
2018-04-10T15:02:34.271Z,16.80
2018-04-10T15:07:36.851Z,16.90
2018-04-10T15:12:39.415Z,16.70
2018-04-10T15:17:41.979Z,16.00
2018-04-10T15:22:44.566Z,16.00
2018-04-10T15:27:47.122Z,15.80
2018-04-10T15:32:49.681Z,15.90
2018-04-10T15:37:52.689Z,15.60
2018-04-10T15:42:55.239Z,15.00
2018-04-10T15:47:58.633Z,14.60
2018-04-10T15:53:01.459Z,14.80
2018-04-10T15:58:04.012Z,15.00
2018-04-10T16:03:06.575Z,14.70
2018-04-10T16:08:09.754Z,14.30
2018-04-10T16:13:12.343Z,13.70
2018-04-10T16:18:14.894Z,13.50
2018-04-10T16:23:17.484Z,13.50
2018-04-10T16:28:20.035Z,13.50
2018-04-10T16:33:23.284Z,13.30
2018-04-10T16:38:25.834Z,13.30
2018-04-10T16:43:28.421Z,13.70
2018-04-10T16:48:31.606Z,14.00
2018-04-10T16:53:34.156Z,14.70
2018-04-10T16:58:37.569Z,15.40
2018-04-10T17:03:40.137Z,15.40
2018-04-10T17:08:42.688Z,15.10
2018-04-10T17:13:45.850Z,15.00
2018-04-10T17:18:48.983Z,14.50
2018-04-10T17:23:51.566Z,14.00
2018-04-10T17:28:55.250Z,13.70
2018-04-10T17:33:57.813Z,13.20
2018-04-10T17:39:00.385Z,13.00
2018-04-10T17:44:02.944Z,13.00
2018-04-10T17:49:07.902Z,13.10
2018-04-10T17:54:14.182Z,13.40
2018-04-10T17:59:17.424Z,13.90
2018-04-10T18:04:19.975Z,13.70
2018-04-10T18:09:23.840Z,13.40
2018-04-10T18:14:26.626Z,13.20
2018-04-10T18:19:31.766Z,13.10
2018-04-10T18:24:34.343Z,12.80
2018-04-10T18:29:38.016Z,12.70
2018-04-10T18:34:40.575Z,12.60
2018-04-10T18:39:43.147Z,12.80
2018-04-10T18:44:45.734Z,12.80
2018-04-10T18:49:49.003Z,12.90
2018-04-10T18:54:54.914Z,13.10
2018-04-10T18:59:57.918Z,13.20
2018-04-10T19:05:00.478Z,13.30
2018-04-10T19:10:03.048Z,13.60
2018-04-10T19:15:05.601Z,13.60
2018-04-10T19:20:08.225Z,13.60
2018-04-10T19:25:11.132Z,13.50
2018-04-10T19:30:13.932Z,13.30
2018-04-10T19:35:17.182Z,13.30
2018-04-10T19:40:19.791Z,13.30
2018-04-10T19:45:22.786Z,13.40
2018-04-10T19:50:25.359Z,13.50
2018-04-10T19:55:28.609Z,13.50
2018-04-10T20:00:32.019Z,13.40
2018-04-10T20:05:35.031Z,13.40
2018-04-10T20:10:37.582Z,13.30
2018-04-10T20:15:40.328Z,13.40
2018-04-10T20:20:43.455Z,13.40
2018-04-10T20:25:46.668Z,13.40
2018-04-10T20:30:49.236Z,13.40
2018-04-10T20:35:51.808Z,13.30
2018-04-10T20:40:54.376Z,13.20
2018-04-10T20:45:56.928Z,13.00
2018-04-10T20:50:59.480Z,13.00
2018-04-10T20:56:02.070Z,13.00
2018-04-10T21:01:04.624Z,12.80
2018-04-10T21:06:07.754Z,12.70
2018-04-10T21:11:10.342Z,12.60
2018-04-10T21:16:12.914Z,12.30
2018-04-10T21:21:15.454Z,12.20
2018-04-10T21:26:18.100Z,12.00
2018-04-10T21:31:21.394Z,11.90
2018-04-10T21:36:24.587Z,11.90
2018-04-10T21:41:27.695Z,11.90
2018-04-10T21:46:30.956Z,11.80
2018-04-10T21:51:33.511Z,11.70
2018-04-10T21:56:36.491Z,11.70
2018-04-10T22:01:39.390Z,11.80
2018-04-10T22:06:42.233Z,11.70
2018-04-10T22:11:45.178Z,11.60
2018-04-10T22:16:48.343Z,11.50
2018-04-10T22:21:51.167Z,11.50
2018-04-10T22:26:54.034Z,11.40
2018-04-10T22:31:56.649Z,11.30
2018-04-10T22:36:59.846Z,11.10
2018-04-10T22:42:02.419Z,11.10
2018-04-10T22:47:05.238Z,11.00
2018-04-10T22:52:08.044Z,10.90
2018-04-10T22:57:11.169Z,10.80
2018-04-10T23:02:13.755Z,10.80
2018-04-10T23:07:16.320Z,10.70
2018-04-10T23:12:19.476Z,10.60
2018-04-10T23:17:22.066Z,10.60
2018-04-10T23:22:24.636Z,10.50
2018-04-10T23:27:28.179Z,10.40
2018-04-10T23:32:30.740Z,10.40
2018-04-10T23:37:33.311Z,10.30
2018-04-10T23:42:35.894Z,10.20
2018-04-10T23:47:38.454Z,10.10
2018-04-10T23:52:43.831Z,10.00
2018-04-10T23:57:47.137Z,10.00
